Hauptseite
METAR-TAF:

METAR-TAF

Flughäfen :

Carcassonne, Frankreich

Flughafen Carcassonne

Breite: 43-13N, Länge: 002-19E, Höhe: 130 m

Beobachtung

Neuester Wetterbericht von vor 26 Minuten, um 09:30 UTC
Wind 14 kt aus Ost
Temperatur 20°C
Luftfeuchtigkeit 53%
Luftdruck 1026 hPa
Sichtweite 10 km oder mehr
keine Wolken unter 1500 m und keine Kumulonimbus oder Gewitterwolken

METAR: LFMK 190930Z AUTO 10014KT CAVOK 20/10 Q1026 TEMPO 10015G25KT

Zeit: 11:56 (09:56 UTC)

Prognose

Neuester Wetterbericht von vor 1 Stunde und 56 Minuten, um 08:00 UTC
Gültige Prognose vom 19 um 09 UTC bis 20 um 09 UTC
Wind 10 kt aus Ost
Sichtweite 10 km oder mehr
keine Wolken unter 1500 m und keine Kumulonimbus oder Gewitterwolken
Zeitweise
vom 19 um 09 UTC bis 19 um 18 UTC
Wind 15 kt aus Ost, Böen bis zu 25 kt

TAF: LFMK 190800Z 1909/2009 10010KT CAVOK TEMPO 1909/1918 10015G25KT

Wetterbeobachtungen und Prognosen von mehr als 4000 Flughäfen (METAR und TAF Bericht).

Die verfügbaren Stationen werden durch gelbe und rote Markierungen auf der Karte dargestellt.

Führen Sie die Maus auf sie, um den Namen der Station zu sehen.

Darauf klicken, um die Beobachtung von Wetterbeobachtungen und Prognosen zu sehen.

Um die Karte zu ändern : klicken Sie auf den grünen Tasten mit einem schwarzen Kreuz Zum Vergrößern, auf den grünen Button mit einem Gedankenstrich zu verkleinern, oder auf die grünen Pfeile für benachbarte Karten.


METAR-TAF: